Terminal Aerodrome Forecast
Issued by NWS

Home | Current Version | Previous Version | Text Only | Print | Product List | Glossary On
Versions: 1 2 3 4 5 6 7 8 9 10 11 12 13 14 15 16
729
FTUS41 KCAR 281120
TAFPQI
TAF
KPQI 281120Z 2812/2912 00000KT P6SM BKN250
     FM281700 VRB03KT P6SM -SHRA OVC050
     FM282000 22004KT P6SM VCTS BKN080CB
     FM290400 00000KT 4SM BR BKN250=

USA.gov is the U.S. government's official web portal to all federal, state and local government web resources and services.